createdAt,value
2022-12-18T00:00:47.911Z,35.23
2022-12-18T00:05:52.099Z,28.20
2022-12-18T00:10:54.834Z,44.67
2022-12-18T00:16:09.006Z,37.47
2022-12-18T00:21:13.163Z,25.27
2022-12-18T00:26:21.173Z,42.60
2022-12-18T00:31:27.114Z,47.57
2022-12-18T00:36:34.262Z,31.63
2022-12-18T00:41:55.393Z,20.47
2022-12-18T00:46:57.829Z,35.57
2022-12-18T00:52:01.401Z,48.37
2022-12-18T00:57:03.824Z,36.53
2022-12-18T01:02:06.238Z,31.07
2022-12-18T01:07:09.953Z,33.00
2022-12-18T01:12:12.327Z,27.57
2022-12-18T01:17:15.537Z,33.20
2022-12-18T01:22:17.998Z,44.03
2022-12-18T01:27:20.880Z,36.27
2022-12-18T01:32:23.271Z,37.50
2022-12-18T01:37:26.172Z,32.13
2022-12-18T01:42:28.639Z,45.57
2022-12-18T01:47:40.263Z,35.53
2022-12-18T01:52:45.859Z,34.17
2022-12-18T01:57:48.421Z,37.63
2022-12-18T02:02:51.280Z,40.37
2022-12-18T02:08:16.263Z,36.13
2022-12-18T02:13:39.482Z,35.07
2022-12-18T02:18:48.681Z,50.40
2022-12-18T02:24:09.708Z,57.60
2022-12-18T02:29:24.049Z,48.37
2022-12-18T02:34:30.812Z,53.07
2022-12-18T02:39:35.386Z,35.50
2022-12-18T02:44:45.617Z,26.80
2022-12-18T02:49:50.019Z,40.77
2022-12-18T02:55:04.874Z,29.20
2022-12-18T03:00:14.758Z,28.67
2022-12-18T03:05:32.275Z,37.43
2022-12-18T03:10:40.570Z,31.93
2022-12-18T03:15:48.101Z,28.30
2022-12-18T03:20:53.638Z,39.77
2022-12-18T03:26:07.100Z,43.27
2022-12-18T03:31:15.074Z,45.43
2022-12-18T03:36:18.165Z,33.43
2022-12-18T03:41:29.897Z,42.63
2022-12-18T03:47:37.229Z,54.60
2022-12-18T03:52:44.034Z,54.80
2022-12-18T03:57:48.288Z,52.77
2022-12-18T04:02:56.277Z,46.23
2022-12-18T04:08:06.628Z,31.30
2022-12-18T04:13:13.113Z,46.67
2022-12-18T04:18:16.557Z,50.27
2022-12-18T04:23:19.817Z,42.97
2022-12-18T04:28:23.330Z,62.37
2022-12-18T04:33:25.960Z,59.17
2022-12-18T04:38:28.393Z,55.87
2022-12-18T04:43:39.300Z,53.47
2022-12-18T04:48:46.080Z,38.03
2022-12-18T04:53:48.474Z,47.97
2022-12-18T04:58:50.949Z,36.93
2022-12-18T05:03:53.434Z,31.77
2022-12-18T05:08:55.850Z,52.83
2022-12-18T05:13:58.278Z,50.73
2022-12-18T05:19:03.861Z,54.20
2022-12-18T05:24:09.398Z,50.47
2022-12-18T05:29:13.368Z,24.17
2022-12-18T05:34:16.687Z,26.87
2022-12-18T05:39:19.134Z,43.97
2022-12-18T05:44:21.526Z,55.47
2022-12-18T05:49:23.949Z,47.77
2022-12-18T05:54:28.946Z,43.90
2022-12-18T05:59:31.302Z,39.03
2022-12-18T06:04:34.041Z,50.33
2022-12-18T06:09:36.470Z,51.00
2022-12-18T06:14:39.010Z,25.20
2022-12-18T06:19:41.352Z,26.57
2022-12-18T06:24:43.740Z,28.67
2022-12-18T06:29:46.666Z,47.43
2022-12-18T06:34:48.973Z,48.90
2022-12-18T06:39:51.317Z,51.57
2022-12-18T06:44:53.703Z,37.03
2022-12-18T06:49:56.090Z,47.97
2022-12-18T06:54:58.422Z,37.07
2022-12-18T07:00:00.929Z,26.97
2022-12-18T07:05:09.092Z,33.10
2022-12-18T07:10:13.099Z,46.20
2022-12-18T07:15:15.554Z,36.07
2022-12-18T07:20:18.080Z,48.60
2022-12-18T07:25:20.502Z,53.83
2022-12-18T07:30:22.805Z,58.60
2022-12-18T07:35:25.675Z,63.20
2022-12-18T07:40:28.081Z,68.10
2022-12-18T07:45:30.491Z,68.10
2022-12-18T07:50:32.840Z,64.80
2022-12-18T07:55:54.734Z,50.67
2022-12-18T08:01:08.967Z,37.83
2022-12-18T08:06:11.668Z,78.63
2022-12-18T08:11:13.986Z,53.33
2022-12-18T08:16:16.499Z,47.90
2022-12-18T08:21:23.813Z,23.57
2022-12-18T08:26:28.760Z,32.63
2022-12-18T08:31:31.898Z,45.80
2022-12-18T08:36:34.497Z,40.13
2022-12-18T08:41:36.840Z,67.33
2022-12-18T08:46:41.358Z,64.60
2022-12-18T08:51:43.878Z,32.03
2022-12-18T08:56:46.288Z,66.90
2022-12-18T09:01:49.267Z,53.87
2022-12-18T09:06:51.683Z,58.43
2022-12-18T09:11:57.092Z,49.63
2022-12-18T09:16:59.541Z,48.87
2022-12-18T09:22:05.060Z,44.40
2022-12-18T09:27:07.532Z,42.63
2022-12-18T09:32:09.978Z,42.73
2022-12-18T09:37:12.374Z,51.13
2022-12-18T09:42:23.393Z,46.27
2022-12-18T09:47:31.426Z,41.73
2022-12-18T09:52:44.978Z,48.43
2022-12-18T09:57:54.110Z,45.57
2022-12-18T10:03:12.204Z,45.37
2022-12-18T10:08:19.404Z,59.97
2022-12-18T10:13:36.902Z,37.60
2022-12-18T10:18:56.895Z,35.87
2022-12-18T10:24:22.907Z,49.83
2022-12-18T10:29:27.147Z,29.83
2022-12-18T10:34:29.462Z,43.57
2022-12-18T10:39:31.938Z,42.90
2022-12-18T10:44:34.375Z,44.67
2022-12-18T10:49:37.985Z,48.30
2022-12-18T10:54:40.431Z,52.57
2022-12-18T10:59:53.073Z,47.60
2022-12-18T11:04:55.595Z,35.70
2022-12-18T11:10:02.138Z,40.70
2022-12-18T11:15:05.180Z,58.00
2022-12-18T11:20:32.709Z,50.77
2022-12-18T11:25:36.164Z,49.33
2022-12-18T11:30:39.163Z,46.30
2022-12-18T11:35:44.637Z,39.17
2022-12-18T11:40:52.619Z,41.53
2022-12-18T11:46:07.328Z,44.07
2022-12-18T11:51:19.859Z,38.73
2022-12-18T11:56:37.386Z,36.40
2022-12-18T12:02:26.055Z,47.63
2022-12-18T12:07:53.493Z,20.97
2022-12-18T12:13:17.425Z,40.40
2022-12-18T12:18:19.774Z,45.03
2022-12-18T12:24:06.193Z,40.13
2022-12-18T12:29:36.963Z,45.93
2022-12-18T12:34:45.394Z,44.43
2022-12-18T12:39:49.010Z,49.27
2022-12-18T12:44:59.078Z,53.20
2022-12-18T12:50:06.132Z,51.60
2022-12-18T12:55:21.391Z,47.20
2022-12-18T13:00:27.237Z,50.67
2022-12-18T13:05:42.829Z,65.37
2022-12-18T13:10:45.310Z,42.93
2022-12-18T13:15:49.497Z,53.40
2022-12-18T13:21:06.573Z,52.10
2022-12-18T13:26:12.854Z,76.73
2022-12-18T13:31:34.898Z,48.93
2022-12-18T13:36:37.429Z,49.70
2022-12-18T13:41:40.024Z,45.87
2022-12-18T13:46:47.521Z,43.20
2022-12-18T13:51:56.061Z,47.73
2022-12-18T13:56:58.518Z,39.37
2022-12-18T14:02:19.096Z,43.53
2022-12-18T14:07:27.073Z,39.43
2022-12-18T14:12:53.214Z,37.87
2022-12-18T14:18:10.565Z,41.57
2022-12-18T14:23:35.209Z,57.90
2022-12-18T14:28:44.777Z,60.33
2022-12-18T14:33:47.363Z,43.50
2022-12-18T14:38:51.942Z,53.30
2022-12-18T14:43:55.522Z,56.40
2022-12-18T14:48:58.557Z,56.53
2022-12-18T14:54:03.599Z,40.77
2022-12-18T14:59:17.032Z,45.27
2022-12-18T15:04:36.718Z,46.83
2022-12-18T15:09:40.688Z,44.63
2022-12-18T15:14:43.173Z,76.63
2022-12-18T15:19:47.269Z,54.37
2022-12-18T15:24:50.681Z,49.97
2022-12-18T15:30:10.613Z,44.97
2022-12-18T15:35:25.155Z,34.53
2022-12-18T15:40:27.609Z,45.90
2022-12-18T15:45:30.305Z,45.37
2022-12-18T15:50:32.762Z,50.23
2022-12-18T15:55:57.883Z,46.20
2022-12-18T16:01:03.648Z,51.30
2022-12-18T16:06:06.438Z,50.40
2022-12-18T16:11:38.902Z,49.50
2022-12-18T16:16:41.528Z,42.07
2022-12-18T16:21:44.641Z,42.87
2022-12-18T16:26:47.204Z,75.20
2022-12-18T16:31:49.503Z,53.27
2022-12-18T16:36:52.555Z,55.97
2022-12-18T16:41:55.171Z,86.17
2022-12-18T16:47:02.788Z,29.87
2022-12-18T16:52:06.450Z,92.57
2022-12-18T16:57:11.288Z,128.53
2022-12-18T17:02:15.996Z,100.93
2022-12-18T17:07:20.361Z,133.70
2022-12-18T17:12:23.362Z,104.07
2022-12-18T17:17:25.766Z,95.47
2022-12-18T17:22:28.252Z,110.03
2022-12-18T17:27:30.886Z,104.70
2022-12-18T17:32:33.334Z,115.73
2022-12-18T17:37:35.886Z,123.57
2022-12-18T17:42:38.276Z,122.73
2022-12-18T17:47:40.611Z,45.53
2022-12-18T17:52:43.370Z,83.83
2022-12-18T17:57:46.219Z,62.00
2022-12-18T18:02:48.817Z,71.57
2022-12-18T18:07:51.344Z,80.83
2022-12-18T18:13:13.885Z,79.87
2022-12-18T18:18:16.214Z,55.57
2022-12-18T18:23:19.922Z,73.00
2022-12-18T18:28:25.755Z,57.83
2022-12-18T18:33:28.147Z,40.00
2022-12-18T18:38:30.645Z,56.60
2022-12-18T18:43:33.410Z,65.20
2022-12-18T18:48:37.478Z,48.43
2022-12-18T18:53:44.066Z,93.27
2022-12-18T18:58:46.811Z,99.47
2022-12-18T19:03:50.019Z,109.17
2022-12-18T19:08:53.621Z,112.77
2022-12-18T19:13:57.442Z,116.33
2022-12-18T19:19:02.316Z,126.30
2022-12-18T19:24:06.387Z,134.02
2022-12-18T19:29:11.065Z,125.90
2022-12-18T19:34:13.917Z,113.40
2022-12-18T19:39:19.256Z,87.33
2022-12-18T19:44:21.761Z,44.37
2022-12-18T19:49:24.265Z,86.40
2022-12-18T19:54:26.662Z,62.53
2022-12-18T19:59:29.032Z,78.68
2022-12-18T20:04:32.153Z,83.07
2022-12-18T20:09:36.824Z,97.53
2022-12-18T20:14:39.635Z,98.17
2022-12-18T20:19:42.246Z,97.90
2022-12-18T20:24:47.033Z,114.07
2022-12-18T20:29:52.109Z,109.00
2022-12-18T20:34:54.544Z,110.70
2022-12-18T20:39:57.854Z,114.87
2022-12-18T20:45:01.119Z,112.65
2022-12-18T20:50:05.052Z,118.80
2022-12-18T20:55:07.944Z,122.80
2022-12-18T21:00:11.323Z,132.83
2022-12-18T21:05:15.218Z,132.30
2022-12-18T21:10:17.686Z,116.20
2022-12-18T21:15:28.215Z,87.87
2022-12-18T21:20:31.452Z,110.63
2022-12-18T21:25:33.885Z,135.47
2022-12-18T21:30:36.369Z,55.23
2022-12-18T21:35:38.831Z,75.97
2022-12-18T21:40:41.298Z,94.97
2022-12-18T21:45:44.167Z,59.13
2022-12-18T21:50:46.710Z,62.50
2022-12-18T21:55:59.164Z,55.70
2022-12-18T22:01:02.516Z,71.37
2022-12-18T22:06:09.296Z,53.30
2022-12-18T22:11:13.200Z,58.37
2022-12-18T22:16:15.728Z,55.13
2022-12-18T22:21:30.307Z,47.83
2022-12-18T22:26:39.846Z,58.20
2022-12-18T22:31:42.640Z,60.53
2022-12-18T22:36:48.576Z,74.57
2022-12-18T22:41:51.553Z,57.40
2022-12-18T22:47:05.686Z,69.33
2022-12-18T22:52:10.072Z,46.83
2022-12-18T22:57:13.109Z,47.93
2022-12-18T23:02:15.678Z,48.27
2022-12-18T23:07:18.173Z,64.33
2022-12-18T23:12:20.562Z,41.80
2022-12-18T23:17:23.184Z,66.93
2022-12-18T23:22:25.567Z,45.07
2022-12-18T23:27:27.997Z,60.20
2022-12-18T23:32:30.288Z,48.13
2022-12-18T23:37:58.346Z,71.10
2022-12-18T23:42:59.664Z,68.40
2022-12-18T23:48:02.062Z,44.50
2022-12-18T23:53:05.825Z,72.33
2022-12-18T23:58:19.063Z,66.40
